Portada
METAR-TAF:

METAR-TAF

Aeropuertos :

Weno, Weno Island, Micronesia

Aeropuerto Internacional de Chuuk

latitud: 07-28N, longitud: 151-51E, altitud: 3 m

Observación

El informe se hizo hace 47 minutos, a las 19:50 UTC
Viento 4 kt con dirección variable
Temperatura 28°C
Humedad 84%
Presión 1011 hPa
Visibilidad: 24.1 km
Escasas nubes a una altura de 1400 ft, Cumulonimbus.
Nubes dispersas a una altura de 12000 ft
Cielo nuboso a una altura de 28000 ft

METAR: PTKK 271950Z VRB04KT 15SM FEW014CB SCT120 BKN280 28/25 A2984 RMK CB SE-SW SLP108 T02760247

Hora: 06:37 (20:37 UTC)

Pronóstico

El informe se hizo hace 3 horas y 10 minutos, a las 17:27 UTC
Pronóstico válido del 27 a las 18 UTC al 28 a las 18 UTC
Viento 7 kt del este-noreste
Visibilidad: 10 km
Escasas nubes a una altura de 1400 ft
Nubes dispersas a una altura de 12000 ft
chaparrones en las proximidades

TAF: PTKK 271727Z 2718/2818 06007KT P6SM VCSH FEW014 SCT120

Observaciones y pronósticos meteorológicos de más de 4000 aeropuertos (mensajes METAR y TAF).

Los puntos amarillos y rojos representan las estaciones disponibles.

Ponga el ratón en el punto deseado para ver el nombre de la estación.

Haga clic para ver las observaciones y los pronósticos meteorológicos.

Para cambiar el mapa : haga clic en los botones verdes con una cruz de color negro para hacer un zoom, en el botón verde con un guión para alejar o en las flechas verdes para mapas adyacentes.


METAR-TAF: